createdAt,value
2018-05-24T00:01:14.139Z,59.05
2018-05-24T00:03:42.473Z,58.94
2018-05-24T00:06:11.982Z,58.37
2018-05-24T00:08:40.301Z,58.43
2018-05-24T00:11:09.050Z,58.61
2018-05-24T00:13:37.415Z,58.12
2018-05-24T00:16:05.784Z,58.04
2018-05-24T00:18:34.211Z,57.89
2018-05-24T00:21:02.553Z,57.63
2018-05-24T00:23:31.475Z,57.22
2018-05-24T00:26:00.763Z,56.47
2018-05-24T00:28:29.636Z,56.64
2018-05-24T00:30:57.993Z,56.28
2018-05-24T00:33:27.035Z,56.62
2018-05-24T00:35:55.372Z,56.06
2018-05-24T00:38:24.122Z,55.70
2018-05-24T00:40:52.489Z,54.95
2018-05-24T00:43:21.566Z,54.50
2018-05-24T00:45:49.925Z,53.77
2018-05-24T00:48:18.257Z,54.00
2018-05-24T00:50:46.605Z,53.92
2018-05-24T00:53:14.981Z,53.86
2018-05-24T00:55:43.418Z,54.00
2018-05-24T00:58:12.178Z,53.72
2018-05-24T01:00:40.932Z,53.52
2018-05-24T01:03:10.176Z,54.58
2018-05-24T01:05:38.524Z,53.75
2018-05-24T01:08:06.866Z,54.03
2018-05-24T01:10:36.149Z,53.83
2018-05-24T01:13:05.366Z,53.75
2018-05-24T01:15:34.563Z,54.31
2018-05-24T01:18:04.002Z,53.93
2018-05-24T01:20:32.714Z,54.40
2018-05-24T01:23:01.043Z,54.48
2018-05-24T01:25:30.122Z,54.99
2018-05-24T01:27:58.465Z,53.47
2018-05-24T01:30:26.832Z,54.18
2018-05-24T01:32:55.204Z,55.40
2018-05-24T01:35:23.554Z,57.00
2018-05-24T01:37:52.766Z,57.25
2018-05-24T01:40:21.419Z,58.79
2018-05-24T01:42:49.782Z,58.94
2018-05-24T01:45:18.180Z,59.62
2018-05-24T01:47:46.986Z,59.42
2018-05-24T01:50:16.010Z,59.54
2018-05-24T01:52:44.343Z,59.68
2018-05-24T01:55:12.734Z,59.01
2018-05-24T01:57:41.074Z,59.00
2018-05-24T02:00:09.427Z,59.68
2018-05-24T02:02:38.312Z,59.98
2018-05-24T02:05:08.478Z,59.20
2018-05-24T02:07:36.813Z,58.22
2018-05-24T02:10:05.181Z,56.66
2018-05-24T02:12:33.506Z,57.30
2018-05-24T02:15:01.896Z,57.49
2018-05-24T02:17:31.633Z,57.66
2018-05-24T02:19:59.991Z,59.09
2018-05-24T02:22:28.382Z,60.68
2018-05-24T02:24:57.738Z,61.71
2018-05-24T02:27:26.076Z,62.47
2018-05-24T02:29:54.457Z,63.50
2018-05-24T02:32:22.791Z,65.02
2018-05-24T02:34:51.177Z,66.47
2018-05-24T02:37:19.977Z,66.67
2018-05-24T02:39:48.381Z,67.61
2018-05-24T02:42:17.363Z,67.89
2018-05-24T02:44:46.952Z,68.31
2018-05-24T02:47:15.309Z,69.68
2018-05-24T02:49:43.689Z,70.99
2018-05-24T02:52:12.186Z,71.99
2018-05-24T02:54:40.526Z,72.53
2018-05-24T02:57:08.965Z,73.59
2018-05-24T02:59:37.357Z,73.54
2018-05-24T03:02:05.722Z,73.56
2018-05-24T03:04:34.185Z,73.10
2018-05-24T03:07:02.546Z,74.21
2018-05-24T03:09:30.871Z,74.48
2018-05-24T03:11:59.216Z,74.49
2018-05-24T03:14:27.624Z,75.28
2018-05-24T03:16:56.165Z,76.52
2018-05-24T03:19:25.522Z,76.22
2018-05-24T03:21:53.886Z,76.00
2018-05-24T03:24:22.246Z,75.51
2018-05-24T03:26:51.346Z,76.67
2018-05-24T03:29:20.581Z,77.06
2018-05-24T03:31:48.958Z,77.53
2018-05-24T03:34:18.007Z,77.24
2018-05-24T03:36:46.700Z,77.35
2018-05-24T03:39:15.029Z,77.82
2018-05-24T03:41:43.388Z,79.04
2018-05-24T03:44:11.725Z,77.96
2018-05-24T03:46:41.020Z,77.30
2018-05-24T03:49:09.816Z,78.64
2018-05-24T03:51:39.551Z,78.76
2018-05-24T03:54:07.882Z,78.50
2018-05-24T03:56:36.291Z,78.99
2018-05-24T04:02:25.746Z,79.97
2018-05-24T04:04:55.993Z,79.24
2018-05-24T04:07:24.681Z,79.97
2018-05-24T04:09:53.017Z,79.48
2018-05-24T04:12:21.394Z,80.24
2018-05-24T04:14:50.069Z,79.90
2018-05-24T04:17:18.462Z,80.18
2018-05-24T04:19:47.661Z,79.73
2018-05-24T04:22:16.027Z,80.13
2018-05-24T04:24:44.376Z,80.36
2018-05-24T04:27:13.343Z,79.57
2018-05-24T04:29:41.708Z,79.65
2018-05-24T04:32:10.134Z,80.06
2018-05-24T04:34:39.395Z,80.25
2018-05-24T04:37:08.239Z,80.31
2018-05-24T04:39:36.581Z,79.90
2018-05-24T04:42:04.944Z,80.52
2018-05-24T04:44:33.275Z,79.92
2018-05-24T04:47:01.646Z,80.63
2018-05-24T04:49:30.601Z,79.72
2018-05-24T04:51:58.972Z,80.47
2018-05-24T04:54:28.145Z,79.98
2018-05-24T04:56:56.829Z,78.95
2018-05-24T04:59:25.167Z,78.85
2018-05-24T05:01:53.770Z,79.48
2018-05-24T05:04:22.180Z,78.23
2018-05-24T05:06:50.589Z,77.27
2018-05-24T05:09:19.278Z,77.00
2018-05-24T05:11:48.004Z,76.27
2018-05-24T05:14:16.337Z,77.24
2018-05-24T05:16:44.713Z,76.44
2018-05-24T05:19:13.094Z,75.88
2018-05-24T05:21:43.425Z,76.12
2018-05-24T05:24:12.016Z,75.24
2018-05-24T05:26:41.285Z,75.29
2018-05-24T05:29:10.252Z,74.91
2018-05-24T05:31:38.655Z,75.49
2018-05-24T05:34:07.241Z,76.12
2018-05-24T05:36:35.656Z,75.47
2018-05-24T05:39:03.985Z,75.65
2018-05-24T05:41:32.360Z,74.35
2018-05-24T05:44:01.349Z,74.36
2018-05-24T05:46:30.489Z,75.70
2018-05-24T05:48:58.830Z,74.56
2018-05-24T05:51:28.043Z,74.23
2018-05-24T05:53:56.380Z,74.02
2018-05-24T05:56:24.973Z,74.27
2018-05-24T05:58:54.813Z,74.36
2018-05-24T06:01:23.229Z,73.87
2018-05-24T06:03:52.882Z,74.51
2018-05-24T06:06:22.135Z,75.36
2018-05-24T06:08:50.469Z,74.36
2018-05-24T06:11:20.169Z,74.83
2018-05-24T06:13:48.869Z,74.06
2018-05-24T06:16:17.208Z,74.15
2018-05-24T06:18:46.048Z,73.87
2018-05-24T06:21:15.308Z,74.43
2018-05-24T06:23:44.021Z,74.76
2018-05-24T06:26:13.943Z,75.46
2018-05-24T06:28:42.280Z,75.62
2018-05-24T06:31:10.686Z,74.55
2018-05-24T06:33:39.252Z,74.31
2018-05-24T06:36:07.618Z,74.58
2018-05-24T06:38:36.002Z,74.28
2018-05-24T06:41:04.373Z,74.80
2018-05-24T06:43:33.520Z,73.89
2018-05-24T06:46:02.816Z,74.32
2018-05-24T06:48:31.206Z,74.23
2018-05-24T06:51:00.279Z,73.59
2018-05-24T06:53:29.395Z,73.83
2018-05-24T06:55:59.188Z,74.12
2018-05-24T06:58:28.095Z,74.35
2018-05-24T07:00:57.625Z,74.44
2018-05-24T07:03:26.186Z,74.85
2018-05-24T07:05:55.962Z,73.88
2018-05-24T07:08:25.073Z,74.06
2018-05-24T07:10:53.412Z,73.86
2018-05-24T07:13:22.710Z,73.97
2018-05-24T07:15:51.049Z,73.38
2018-05-24T07:18:20.397Z,74.04
2018-05-24T07:20:50.201Z,73.90
2018-05-24T07:23:18.846Z,75.07
2018-05-24T07:25:47.476Z,74.05
2018-05-24T07:28:16.648Z,75.67
2018-05-24T07:30:45.322Z,74.08
2018-05-24T07:33:14.401Z,74.01
2018-05-24T07:35:43.890Z,72.53
2018-05-24T07:38:12.257Z,73.45
2018-05-24T07:40:40.729Z,74.82
2018-05-24T07:43:09.141Z,72.97
2018-05-24T07:45:39.582Z,73.97
2018-05-24T07:48:09.282Z,74.05
2018-05-24T07:50:37.967Z,71.73
2018-05-24T07:53:06.731Z,71.63
2018-05-24T07:55:35.108Z,73.04
2018-05-24T07:58:03.808Z,73.53
2018-05-24T08:00:32.162Z,73.51
2018-05-24T08:03:00.647Z,73.88
2018-05-24T08:05:29.036Z,73.41
2018-05-24T08:07:57.437Z,73.52
2018-05-24T08:10:26.169Z,74.35
2018-05-24T08:12:55.181Z,74.66
2018-05-24T08:15:24.231Z,75.41
2018-05-24T08:17:53.716Z,74.71
2018-05-24T08:20:22.115Z,75.27
2018-05-24T08:22:50.482Z,74.77
2018-05-24T08:25:18.914Z,74.44
2018-05-24T08:27:47.297Z,74.54
2018-05-24T08:30:16.196Z,74.51
2018-05-24T08:32:45.371Z,74.20
2018-05-24T08:35:14.298Z,73.95
2018-05-24T08:37:42.996Z,73.81
2018-05-24T08:40:11.342Z,73.35
2018-05-24T08:42:40.658Z,72.21
2018-05-24T08:45:10.282Z,72.12
2018-05-24T08:47:39.590Z,72.21
2018-05-24T08:50:08.318Z,71.08
2018-05-24T08:52:37.566Z,71.33
2018-05-24T08:55:06.755Z,72.10
2018-05-24T08:57:36.549Z,71.90
2018-05-24T09:00:05.833Z,71.79
2018-05-24T09:02:34.469Z,71.46
2018-05-24T09:05:02.876Z,71.42
2018-05-24T09:07:31.314Z,72.21
2018-05-24T09:10:00.628Z,72.04
2018-05-24T09:12:29.005Z,72.71
2018-05-24T09:14:57.625Z,72.15
2018-05-24T09:17:26.469Z,72.72
2018-05-24T09:19:54.801Z,72.66
2018-05-24T09:22:23.437Z,71.56
2018-05-24T09:24:52.932Z,72.27
2018-05-24T09:27:22.157Z,72.14
2018-05-24T09:29:51.388Z,71.09
2018-05-24T09:32:19.754Z,71.53
2018-05-24T09:34:48.614Z,71.73
2018-05-24T09:37:17.034Z,71.47
2018-05-24T09:39:45.462Z,71.53
2018-05-24T09:42:13.876Z,70.00
2018-05-24T09:44:42.478Z,68.89
2018-05-24T09:47:11.529Z,69.57
2018-05-24T09:49:40.759Z,69.39
2018-05-24T09:52:09.119Z,69.20
2018-05-24T09:54:38.373Z,68.60
2018-05-24T09:57:07.375Z,68.99
2018-05-24T09:59:36.110Z,68.17
2018-05-24T10:02:04.797Z,68.39
2018-05-24T10:04:33.228Z,68.61
2018-05-24T10:07:03.552Z,68.14
2018-05-24T10:09:32.637Z,68.86
2018-05-24T10:12:01.056Z,69.65
2018-05-24T10:14:29.458Z,69.56
2018-05-24T10:16:58.730Z,69.35
2018-05-24T10:19:27.093Z,69.18
2018-05-24T10:21:57.198Z,68.77
2018-05-24T10:24:27.371Z,69.33
2018-05-24T10:26:56.943Z,68.74
2018-05-24T10:29:26.606Z,69.25
2018-05-24T10:31:54.844Z,68.20
2018-05-24T10:34:23.248Z,69.51
2018-05-24T10:36:53.461Z,70.19
2018-05-24T10:39:21.853Z,70.01
2018-05-24T10:41:51.097Z,71.60
2018-05-24T10:44:19.527Z,71.22
2018-05-24T10:46:47.983Z,71.17
2018-05-24T10:49:16.681Z,71.23
2018-05-24T10:51:45.801Z,72.34
2018-05-24T10:54:14.258Z,71.90
2018-05-24T10:56:42.594Z,73.07
2018-05-24T10:59:13.614Z,73.43
2018-05-24T11:01:41.962Z,73.54
2018-05-24T11:04:11.144Z,73.50
2018-05-24T11:06:39.481Z,73.47
2018-05-24T11:09:08.199Z,73.82
2018-05-24T11:11:37.895Z,73.42
2018-05-24T11:14:06.359Z,73.84
2018-05-24T11:16:34.705Z,75.20
2018-05-24T11:19:03.913Z,74.17
2018-05-24T11:21:32.275Z,74.25
2018-05-24T11:24:00.639Z,75.04
2018-05-24T11:26:29.854Z,75.73
2018-05-24T11:28:58.221Z,75.59
2018-05-24T11:31:26.612Z,76.65
2018-05-24T11:33:55.753Z,77.17
2018-05-24T11:36:25.119Z,77.86
2018-05-24T11:38:53.481Z,77.64
2018-05-24T11:41:22.850Z,78.09
2018-05-24T11:43:52.017Z,78.36
2018-05-24T11:46:20.374Z,77.21
2018-05-24T11:48:49.728Z,77.34
2018-05-24T11:51:18.386Z,76.63
2018-05-24T11:53:49.249Z,77.25
2018-05-24T11:56:18.440Z,75.54
2018-05-24T11:58:46.918Z,76.17
2018-05-24T12:01:16.903Z,75.78
2018-05-24T12:03:45.279Z,75.18
2018-05-24T12:06:15.183Z,75.17
2018-05-24T12:08:43.559Z,75.67
2018-05-24T12:11:13.096Z,74.19
2018-05-24T12:13:42.723Z,73.01
2018-05-24T12:16:11.071Z,72.75
2018-05-24T12:18:39.756Z,70.91
2018-05-24T12:21:08.111Z,71.67
2018-05-24T12:23:36.490Z,70.94
2018-05-24T12:26:05.373Z,68.94
2018-05-24T12:28:34.361Z,69.96
2018-05-24T12:31:02.992Z,69.12
2018-05-24T12:33:31.591Z,69.59
2018-05-24T12:36:00.229Z,69.00
2018-05-24T12:38:28.646Z,69.43
2018-05-24T12:40:57.832Z,69.00
2018-05-24T12:43:26.950Z,68.33
2018-05-24T12:45:57.335Z,66.10
2018-05-24T12:48:26.487Z,66.70
2018-05-24T12:50:55.503Z,66.96
2018-05-24T12:53:23.861Z,67.15
2018-05-24T12:55:52.231Z,65.62
2018-05-24T12:58:20.838Z,67.06
2018-05-24T13:00:49.958Z,68.78
2018-05-24T13:03:18.340Z,68.87
2018-05-24T13:05:46.712Z,67.00
2018-05-24T13:08:15.047Z,68.23
2018-05-24T13:10:43.397Z,68.21
2018-05-24T13:13:11.764Z,67.68
2018-05-24T13:15:40.140Z,68.68
2018-05-24T13:18:08.516Z,67.78
2018-05-24T13:20:36.905Z,68.17
2018-05-24T13:23:05.814Z,69.16
2018-05-24T13:25:34.147Z,69.65
2018-05-24T13:28:02.510Z,69.75
2018-05-24T13:30:32.454Z,70.33
2018-05-24T13:33:01.250Z,70.54
2018-05-24T13:35:30.637Z,71.16
2018-05-24T13:37:58.984Z,72.63
2018-05-24T13:40:27.339Z,73.39
2018-05-24T13:42:56.943Z,74.27
2018-05-24T13:45:25.278Z,74.10
2018-05-24T13:47:53.663Z,73.58
2018-05-24T13:50:22.889Z,73.11
2018-05-24T13:52:51.225Z,74.14
2018-05-24T13:55:20.034Z,74.63
2018-05-24T13:57:48.406Z,74.60
2018-05-24T14:00:17.013Z,74.65
2018-05-24T14:02:45.337Z,76.33
2018-05-24T14:05:14.901Z,74.63
2018-05-24T14:07:43.255Z,74.83
2018-05-24T14:10:11.625Z,74.57
2018-05-24T14:12:40.708Z,75.59
2018-05-24T14:15:09.140Z,75.75
2018-05-24T14:17:37.493Z,75.56
2018-05-24T14:20:06.798Z,75.44
2018-05-24T14:22:35.149Z,74.62
2018-05-24T14:25:03.532Z,74.47
2018-05-24T14:27:32.997Z,74.70
2018-05-24T14:30:02.143Z,76.05
2018-05-24T14:32:30.976Z,75.98
2018-05-24T14:35:00.714Z,76.10
2018-05-24T14:37:29.057Z,76.88
2018-05-24T14:39:57.427Z,76.68
2018-05-24T14:42:25.778Z,74.58
2018-05-24T14:44:54.197Z,73.93
2018-05-24T14:47:23.311Z,75.17
2018-05-24T14:49:51.902Z,75.53
2018-05-24T14:52:20.664Z,74.70
2018-05-24T14:54:52.059Z,75.14
2018-05-24T14:57:20.985Z,75.49
2018-05-24T14:59:49.656Z,75.36
2018-05-24T15:02:17.994Z,75.93
2018-05-24T15:04:46.361Z,75.10
2018-05-24T15:07:15.123Z,74.72
2018-05-24T15:09:43.545Z,74.44
2018-05-24T15:12:12.385Z,74.17
2018-05-24T15:14:41.195Z,74.77
2018-05-24T15:17:09.533Z,73.87
2018-05-24T15:19:37.916Z,72.97
2018-05-24T15:22:06.268Z,72.50
2018-05-24T15:24:35.862Z,72.84
2018-05-24T15:27:06.027Z,72.58
2018-05-24T15:29:35.257Z,72.01
2018-05-24T15:32:04.622Z,72.73
2018-05-24T15:34:33.692Z,73.09
2018-05-24T15:37:02.438Z,71.94
2018-05-24T15:39:31.486Z,72.38
2018-05-24T15:41:59.830Z,72.05
2018-05-24T15:44:28.941Z,72.52
2018-05-24T15:46:57.520Z,71.96
2018-05-24T15:49:26.476Z,71.35
2018-05-24T15:51:54.924Z,71.74
2018-05-24T15:54:24.257Z,71.65
2018-05-24T15:56:52.667Z,70.94
2018-05-24T15:59:21.074Z,71.77
2018-05-24T16:01:49.406Z,71.25
2018-05-24T16:04:19.364Z,71.11
2018-05-24T16:06:47.712Z,71.55
2018-05-24T16:09:18.952Z,70.62
2018-05-24T16:11:47.621Z,71.08
2018-05-24T16:14:15.979Z,70.99
2018-05-24T16:16:44.352Z,70.94
2018-05-24T16:19:12.714Z,70.50
2018-05-24T16:21:42.144Z,70.22
2018-05-24T16:24:11.453Z,70.61
2018-05-24T16:26:40.117Z,71.46
2018-05-24T16:29:09.182Z,70.64
2018-05-24T16:31:37.583Z,70.53
2018-05-24T16:34:05.999Z,69.52
2018-05-24T16:36:35.133Z,70.11
2018-05-24T16:39:03.529Z,69.13
2018-05-24T16:41:32.813Z,70.50
2018-05-24T16:44:01.419Z,71.05
2018-05-24T16:46:30.646Z,70.09
2018-05-24T16:48:59.015Z,71.02
2018-05-24T16:51:27.988Z,70.63
2018-05-24T16:53:56.592Z,70.39
2018-05-24T16:56:24.993Z,71.14
2018-05-24T16:58:53.769Z,71.18
2018-05-24T17:01:22.159Z,71.23
2018-05-24T17:03:50.541Z,71.28
2018-05-24T17:06:19.220Z,71.80
2018-05-24T17:08:47.594Z,71.27
2018-05-24T17:11:15.981Z,70.87
2018-05-24T17:13:45.134Z,70.21
2018-05-24T17:16:13.493Z,69.89
2018-05-24T17:18:41.955Z,69.02
2018-05-24T17:21:11.089Z,68.33
2018-05-24T17:23:41.078Z,67.59
2018-05-24T17:26:10.348Z,66.97
2018-05-24T17:28:38.814Z,66.94
2018-05-24T17:31:07.865Z,66.90
2018-05-24T17:33:37.293Z,67.13
2018-05-24T17:36:05.709Z,66.84
2018-05-24T17:38:34.842Z,68.04
2018-05-24T17:41:03.211Z,68.22
2018-05-24T17:43:31.603Z,68.15
2018-05-24T17:46:00.747Z,69.09
2018-05-24T17:48:29.107Z,69.01
2018-05-24T17:50:58.283Z,70.20
2018-05-24T17:53:28.124Z,69.35
2018-05-24T17:55:56.925Z,70.56
2018-05-24T17:58:25.611Z,71.03
2018-05-24T18:00:54.712Z,70.83
2018-05-24T18:03:23.105Z,71.40
2018-05-24T18:05:51.404Z,70.78
2018-05-24T18:08:19.759Z,71.40
2018-05-24T18:10:48.165Z,72.00
2018-05-24T18:13:17.123Z,71.54
2018-05-24T18:15:45.793Z,72.12
2018-05-24T18:18:14.139Z,71.83
2018-05-24T18:20:42.510Z,72.15
2018-05-24T18:23:11.791Z,72.03
2018-05-24T18:25:40.170Z,72.16
2018-05-24T18:28:09.406Z,72.21
2018-05-24T18:30:37.772Z,72.80
2018-05-24T18:33:06.125Z,72.88
2018-05-24T18:35:35.125Z,72.90
2018-05-24T18:38:04.837Z,72.89
2018-05-24T18:40:33.857Z,72.87
2018-05-24T18:43:02.679Z,73.35
2018-05-24T18:45:31.058Z,73.86
2018-05-24T18:47:59.453Z,73.39
2018-05-24T18:50:28.041Z,74.01
2018-05-24T18:52:56.390Z,74.60
2018-05-24T18:55:24.994Z,74.81
2018-05-24T18:57:53.577Z,74.66
2018-05-24T19:00:22.650Z,74.64
2018-05-24T19:02:51.419Z,74.23
2018-05-24T19:05:19.838Z,74.67
2018-05-24T19:07:48.492Z,74.80
2018-05-24T19:10:18.329Z,74.85
2018-05-24T19:12:46.723Z,75.18
2018-05-24T19:15:15.670Z,74.97
2018-05-24T19:17:44.062Z,75.14
2018-05-24T19:20:13.361Z,74.67
2018-05-24T19:22:43.100Z,74.75
2018-05-24T19:25:11.863Z,74.82
2018-05-24T19:27:40.765Z,75.20
2018-05-24T19:30:09.173Z,75.24
2018-05-24T19:32:38.382Z,75.42
2018-05-24T19:35:07.289Z,75.24
2018-05-24T19:37:36.320Z,75.60
2018-05-24T19:40:04.928Z,75.55
2018-05-24T19:42:33.310Z,75.55
2018-05-24T19:45:01.687Z,75.66
2018-05-24T19:47:30.030Z,75.88
2018-05-24T19:49:59.893Z,76.20
2018-05-24T19:52:28.600Z,76.61
2018-05-24T19:54:57.005Z,76.97
2018-05-24T19:57:25.718Z,76.95
2018-05-24T19:59:54.424Z,76.94
2018-05-24T20:02:22.766Z,76.98
2018-05-24T20:04:51.152Z,77.14
2018-05-24T20:07:20.448Z,77.07
2018-05-24T20:09:48.848Z,77.05
2018-05-24T20:12:17.232Z,77.45
2018-05-24T20:14:45.601Z,77.60
2018-05-24T20:17:14.020Z,78.11
2018-05-24T20:19:43.290Z,77.89
2018-05-24T20:22:11.698Z,77.93
2018-05-24T20:24:40.418Z,78.66
2018-05-24T20:27:09.100Z,78.28
2018-05-24T20:29:37.503Z,78.81
2018-05-24T20:32:06.471Z,78.75
2018-05-24T20:34:34.959Z,78.76
2018-05-24T20:37:03.357Z,78.44
2018-05-24T20:39:32.637Z,78.79
2018-05-24T20:42:01.930Z,78.67
2018-05-24T20:44:30.462Z,79.32
2018-05-24T20:46:58.818Z,79.42
2018-05-24T20:49:27.858Z,79.70
2018-05-24T20:51:56.672Z,79.84
2018-05-24T20:54:25.002Z,79.56
2018-05-24T20:56:53.379Z,79.94
2018-05-24T20:59:22.616Z,80.04
2018-05-24T21:01:51.371Z,79.95
2018-05-24T21:04:20.109Z,79.88
2018-05-24T21:06:48.542Z,79.78
2018-05-24T21:09:18.221Z,79.71
2018-05-24T21:11:47.215Z,79.50
2018-05-24T21:14:15.881Z,79.26
2018-05-24T21:16:44.582Z,79.16
2018-05-24T21:19:12.928Z,79.50
2018-05-24T21:21:42.279Z,79.93
2018-05-24T21:24:10.641Z,80.47
2018-05-24T21:26:39.822Z,80.39
2018-05-24T21:29:08.217Z,80.20
2018-05-24T21:31:36.588Z,80.52
2018-05-24T21:34:05.662Z,80.22
2018-05-24T21:36:34.121Z,80.25
2018-05-24T21:39:02.465Z,80.57
2018-05-24T21:41:31.098Z,80.46
2018-05-24T21:44:00.357Z,80.52
2018-05-24T21:46:28.747Z,80.65
2018-05-24T21:48:57.384Z,80.29
2018-05-24T21:51:25.752Z,81.00
2018-05-24T21:53:54.144Z,80.56
2018-05-24T21:56:24.005Z,80.05
2018-05-24T21:58:52.351Z,80.22
2018-05-24T22:01:20.757Z,80.33
2018-05-24T22:03:49.104Z,80.53
2018-05-24T22:06:18.424Z,80.20
2018-05-24T22:08:47.032Z,80.27
2018-05-24T22:11:15.392Z,80.36
2018-05-24T22:13:43.733Z,80.64
2018-05-24T22:16:12.351Z,80.41
2018-05-24T22:18:41.516Z,80.21
2018-05-24T22:21:09.906Z,80.12
2018-05-24T22:23:38.237Z,79.86
2018-05-24T22:26:06.844Z,79.85
2018-05-24T22:28:35.235Z,79.79
2018-05-24T22:31:03.713Z,79.75
2018-05-24T22:33:33.330Z,79.24
2018-05-24T22:36:02.098Z,79.62
2018-05-24T22:38:31.347Z,79.77
2018-05-24T22:40:59.721Z,79.97
2018-05-24T22:43:28.290Z,79.87
2018-05-24T22:45:57.438Z,79.69
2018-05-24T22:48:27.482Z,79.41
2018-05-24T22:50:56.252Z,79.97
2018-05-24T22:53:25.235Z,79.83
2018-05-24T22:55:53.905Z,79.92
2018-05-24T22:58:22.370Z,80.24
2018-05-24T23:00:51.103Z,80.37
2018-05-24T23:03:21.823Z,80.27
2018-05-24T23:05:50.518Z,80.46
2018-05-24T23:08:18.856Z,80.28
2018-05-24T23:10:48.089Z,80.52
2018-05-24T23:13:17.528Z,80.43
2018-05-24T23:15:45.886Z,80.40
2018-05-24T23:18:14.903Z,80.19
2018-05-24T23:20:43.279Z,80.50
2018-05-24T23:23:12.401Z,80.25
2018-05-24T23:25:40.790Z,80.59
2018-05-24T23:28:10.032Z,81.26
2018-05-24T23:30:38.405Z,81.16
2018-05-24T23:33:06.797Z,81.46
2018-05-24T23:35:36.032Z,81.50
2018-05-24T23:38:04.376Z,81.45
2018-05-24T23:40:33.595Z,81.11
2018-05-24T23:43:02.755Z,81.34
2018-05-24T23:45:31.556Z,80.95
2018-05-24T23:47:59.968Z,80.57
2018-05-24T23:50:28.783Z,80.38
2018-05-24T23:52:57.380Z,80.74
2018-05-24T23:55:25.777Z,81.14
2018-05-24T23:57:54.131Z,81.16
